sensor_id;sensor_type;location;lat;lon;timestamp;P1;durP1;ratioP1;P2;durP2;ratioP2
51828;SDS011;37881;48.024;8.774;2022-09-09T00:01:23;4.85;;;2.40;;
51828;SDS011;37881;48.024;8.774;2022-09-09T00:04:27;5.63;;;2.67;;
51828;SDS011;37881;48.024;8.774;2022-09-09T00:09:46;6.27;;;2.53;;
51828;SDS011;37881;48.024;8.774;2022-09-09T00:12:17;4.57;;;2.38;;
51828;SDS011;37881;48.024;8.774;2022-09-09T00:14:56;5.28;;;2.78;;
51828;SDS011;37881;48.024;8.774;2022-09-09T00:17:39;4.95;;;2.30;;
51828;SDS011;37881;48.024;8.774;2022-09-09T00:20:34;4.95;;;2.58;;
51828;SDS011;37881;48.024;8.774;2022-09-09T00:23:14;6.33;;;2.77;;
51828;SDS011;37881;48.024;8.774;2022-09-09T00:28:24;5.93;;;2.72;;
51828;SDS011;37881;48.024;8.774;2022-09-09T00:30:53;5.22;;;2.17;;
51828;SDS011;37881;48.024;8.774;2022-09-09T00:33:23;4.53;;;2.30;;
51828;SDS011;37881;48.024;8.774;2022-09-09T00:35:52;5.57;;;2.40;;
51828;SDS011;37881;48.024;8.774;2022-09-09T00:41:06;5.40;;;2.53;;
51828;SDS011;37881;48.024;8.774;2022-09-09T00:43:40;6.10;;;2.45;;
51828;SDS011;37881;48.024;8.774;2022-09-09T00:49:39;5.27;;;2.30;;
51828;SDS011;37881;48.024;8.774;2022-09-09T00:56:47;5.68;;;2.53;;
51828;SDS011;37881;48.024;8.774;2022-09-09T01:02:23;5.97;;;2.33;;
51828;SDS011;37881;48.024;8.774;2022-09-09T01:04:53;5.15;;;2.85;;
51828;SDS011;37881;48.024;8.774;2022-09-09T01:07:20;5.28;;;2.60;;
51828;SDS011;37881;48.024;8.774;2022-09-09T01:09:52;5.93;;;2.80;;
51828;SDS011;37881;48.024;8.774;2022-09-09T01:15:14;5.47;;;2.70;;
51828;SDS011;37881;48.024;8.774;2022-09-09T01:17:50;4.80;;;2.40;;
51828;SDS011;37881;48.024;8.774;2022-09-09T01:20:39;6.18;;;2.58;;
51828;SDS011;37881;48.024;8.774;2022-09-09T01:28:50;5.77;;;2.77;;
51828;SDS011;37881;48.024;8.774;2022-09-09T01:34:26;5.53;;;2.65;;
51828;SDS011;37881;48.024;8.774;2022-09-09T01:39:34;5.90;;;2.40;;
51828;SDS011;37881;48.024;8.774;2022-09-09T01:42:03;5.00;;;2.30;;
51828;SDS011;37881;48.024;8.774;2022-09-09T01:44:32;6.07;;;2.10;;
51828;SDS011;37881;48.024;8.774;2022-09-09T01:47:00;6.35;;;2.47;;
51828;SDS011;37881;48.024;8.774;2022-09-09T01:49:28;4.45;;;2.40;;
51828;SDS011;37881;48.024;8.774;2022-09-09T01:51:55;6.45;;;2.40;;
51828;SDS011;37881;48.024;8.774;2022-09-09T01:54:24;6.47;;;2.50;;
51828;SDS011;37881;48.024;8.774;2022-09-09T01:57:08;5.90;;;2.58;;
51828;SDS011;37881;48.024;8.774;2022-09-09T01:59:48;6.38;;;2.22;;
51828;SDS011;37881;48.024;8.774;2022-09-09T02:02:31;4.97;;;2.30;;
51828;SDS011;37881;48.024;8.774;2022-09-09T02:07:48;6.10;;;2.30;;
51828;SDS011;37881;48.024;8.774;2022-09-09T02:10:17;6.80;;;2.38;;
51828;SDS011;37881;48.024;8.774;2022-09-09T02:12:48;7.63;;;3.72;;
51828;SDS011;37881;48.024;8.774;2022-09-09T02:15:24;7.88;;;3.00;;
51828;SDS011;37881;48.024;8.774;2022-09-09T02:17:59;5.68;;;2.70;;
51828;SDS011;37881;48.024;8.774;2022-09-09T02:20:30;8.20;;;2.83;;
51828;SDS011;37881;48.024;8.774;2022-09-09T02:23:00;5.00;;;2.70;;
51828;SDS011;37881;48.024;8.774;2022-09-09T02:25:29;5.43;;;2.70;;
51828;SDS011;37881;48.024;8.774;2022-09-09T02:27:56;8.02;;;2.50;;
51828;SDS011;37881;48.024;8.774;2022-09-09T02:30:25;7.43;;;2.80;;
51828;SDS011;37881;48.024;8.774;2022-09-09T02:32:55;4.43;;;2.40;;
51828;SDS011;37881;48.024;8.774;2022-09-09T02:35:24;6.22;;;2.50;;
51828;SDS011;37881;48.024;8.774;2022-09-09T02:37:55;4.68;;;2.53;;
51828;SDS011;37881;48.024;8.774;2022-09-09T02:40:25;6.10;;;2.47;;
51828;SDS011;37881;48.024;8.774;2022-09-09T02:42:53;4.25;;;2.58;;
51828;SDS011;37881;48.024;8.774;2022-09-09T02:45:24;6.77;;;2.53;;
51828;SDS011;37881;48.024;8.774;2022-09-09T02:48:39;5.15;;;2.53;;
51828;SDS011;37881;48.024;8.774;2022-09-09T02:56:21;4.85;;;2.50;;
51828;SDS011;37881;48.024;8.774;2022-09-09T02:58:51;4.77;;;2.40;;
51828;SDS011;37881;48.024;8.774;2022-09-09T03:01:18;5.25;;;2.70;;
51828;SDS011;37881;48.024;8.774;2022-09-09T03:03:45;4.72;;;2.33;;
51828;SDS011;37881;48.024;8.774;2022-09-09T03:06:12;6.55;;;2.67;;
51828;SDS011;37881;48.024;8.774;2022-09-09T03:08:40;5.82;;;2.70;;
51828;SDS011;37881;48.024;8.774;2022-09-09T03:11:15;5.53;;;3.13;;
51828;SDS011;37881;48.024;8.774;2022-09-09T03:13:42;5.40;;;3.00;;
51828;SDS011;37881;48.024;8.774;2022-09-09T03:16:09;5.63;;;2.92;;
51828;SDS011;37881;48.024;8.774;2022-09-09T03:18:36;7.65;;;3.17;;
51828;SDS011;37881;48.024;8.774;2022-09-09T03:21:03;6.00;;;3.25;;
51828;SDS011;37881;48.024;8.774;2022-09-09T03:23:29;17.97;;;7.50;;
51828;SDS011;37881;48.024;8.774;2022-09-09T03:25:56;8.32;;;4.30;;
51828;SDS011;37881;48.024;8.774;2022-09-09T03:28:24;6.05;;;3.15;;
51828;SDS011;37881;48.024;8.774;2022-09-09T03:31:03;6.95;;;2.90;;
51828;SDS011;37881;48.024;8.774;2022-09-09T03:33:31;6.38;;;2.90;;
51828;SDS011;37881;48.024;8.774;2022-09-09T03:35:58;4.60;;;2.53;;
51828;SDS011;37881;48.024;8.774;2022-09-09T03:38:25;6.85;;;3.03;;
51828;SDS011;37881;48.024;8.774;2022-09-09T03:40:53;7.00;;;3.30;;
51828;SDS011;37881;48.024;8.774;2022-09-09T03:43:24;6.55;;;2.92;;
51828;SDS011;37881;48.024;8.774;2022-09-09T03:45:52;6.75;;;3.00;;
51828;SDS011;37881;48.024;8.774;2022-09-09T03:48:19;6.77;;;2.90;;
51828;SDS011;37881;48.024;8.774;2022-09-09T03:50:46;5.55;;;2.83;;
51828;SDS011;37881;48.024;8.774;2022-09-09T03:53:15;5.13;;;3.10;;
51828;SDS011;37881;48.024;8.774;2022-09-09T03:55:46;5.78;;;3.13;;
51828;SDS011;37881;48.024;8.774;2022-09-09T03:58:14;6.60;;;3.10;;
51828;SDS011;37881;48.024;8.774;2022-09-09T04:00:41;6.50;;;2.80;;
51828;SDS011;37881;48.024;8.774;2022-09-09T04:03:11;6.47;;;3.17;;
51828;SDS011;37881;48.024;8.774;2022-09-09T04:05:40;6.63;;;2.90;;
51828;SDS011;37881;48.024;8.774;2022-09-09T04:08:08;6.72;;;3.22;;
51828;SDS011;37881;48.024;8.774;2022-09-09T04:10:35;9.15;;;3.70;;
51828;SDS011;37881;48.024;8.774;2022-09-09T04:13:04;6.30;;;3.27;;
51828;SDS011;37881;48.024;8.774;2022-09-09T04:15:31;7.78;;;3.22;;
51828;SDS011;37881;48.024;8.774;2022-09-09T04:17:58;5.65;;;3.20;;
51828;SDS011;37881;48.024;8.774;2022-09-09T04:20:25;6.60;;;3.10;;
51828;SDS011;37881;48.024;8.774;2022-09-09T04:22:52;6.07;;;3.25;;
51828;SDS011;37881;48.024;8.774;2022-09-09T04:25:18;6.63;;;3.40;;
51828;SDS011;37881;48.024;8.774;2022-09-09T04:27:45;7.38;;;3.30;;
51828;SDS011;37881;48.024;8.774;2022-09-09T04:30:11;6.43;;;3.60;;
51828;SDS011;37881;48.024;8.774;2022-09-09T04:32:38;5.50;;;3.15;;
51828;SDS011;37881;48.024;8.774;2022-09-09T04:35:05;9.18;;;3.40;;
51828;SDS011;37881;48.024;8.774;2022-09-09T04:37:32;7.93;;;3.60;;
51828;SDS011;37881;48.024;8.774;2022-09-09T04:39:58;6.95;;;3.60;;
51828;SDS011;37881;48.024;8.774;2022-09-09T04:42:28;9.13;;;3.95;;
51828;SDS011;37881;48.024;8.774;2022-09-09T04:44:55;6.05;;;3.30;;
51828;SDS011;37881;48.024;8.774;2022-09-09T04:47:21;7.68;;;2.90;;
51828;SDS011;37881;48.024;8.774;2022-09-09T04:49:48;6.50;;;3.03;;
51828;SDS011;37881;48.024;8.774;2022-09-09T04:52:15;5.82;;;2.90;;
51828;SDS011;37881;48.024;8.774;2022-09-09T04:54:43;5.75;;;3.22;;
51828;SDS011;37881;48.024;8.774;2022-09-09T04:57:11;5.18;;;2.70;;
51828;SDS011;37881;48.024;8.774;2022-09-09T04:59:44;5.65;;;2.95;;
51828;SDS011;37881;48.024;8.774;2022-09-09T05:02:10;5.30;;;3.20;;
51828;SDS011;37881;48.024;8.774;2022-09-09T05:04:37;5.65;;;2.90;;
51828;SDS011;37881;48.024;8.774;2022-09-09T05:07:04;5.75;;;2.92;;
51828;SDS011;37881;48.024;8.774;2022-09-09T05:09:30;7.43;;;2.80;;
51828;SDS011;37881;48.024;8.774;2022-09-09T05:11:57;6.13;;;3.08;;
51828;SDS011;37881;48.024;8.774;2022-09-09T05:14:25;6.73;;;2.83;;
51828;SDS011;37881;48.024;8.774;2022-09-09T05:16:52;6.90;;;3.10;;
51828;SDS011;37881;48.024;8.774;2022-09-09T05:19:19;7.22;;;2.85;;
51828;SDS011;37881;48.024;8.774;2022-09-09T05:21:46;6.30;;;3.22;;
51828;SDS011;37881;48.024;8.774;2022-09-09T05:24:13;8.23;;;3.17;;
51828;SDS011;37881;48.024;8.774;2022-09-09T05:26:40;6.57;;;3.10;;
51828;SDS011;37881;48.024;8.774;2022-09-09T05:29:07;5.30;;;2.85;;
51828;SDS011;37881;48.024;8.774;2022-09-09T05:31:34;4.75;;;2.75;;
51828;SDS011;37881;48.024;8.774;2022-09-09T05:34:01;5.00;;;3.05;;
51828;SDS011;37881;48.024;8.774;2022-09-09T05:36:27;5.30;;;2.65;;
51828;SDS011;37881;48.024;8.774;2022-09-09T05:38:54;6.97;;;3.00;;
51828;SDS011;37881;48.024;8.774;2022-09-09T05:41:21;5.13;;;3.00;;
51828;SDS011;37881;48.024;8.774;2022-09-09T05:43:49;7.40;;;3.00;;
51828;SDS011;37881;48.024;8.774;2022-09-09T05:46:17;5.78;;;2.70;;
51828;SDS011;37881;48.024;8.774;2022-09-09T05:48:46;7.38;;;3.03;;
51828;SDS011;37881;48.024;8.774;2022-09-09T05:51:15;5.20;;;2.80;;
51828;SDS011;37881;48.024;8.774;2022-09-09T05:53:44;8.98;;;2.97;;
51828;SDS011;37881;48.024;8.774;2022-09-09T05:56:12;5.43;;;3.03;;
51828;SDS011;37881;48.024;8.774;2022-09-09T05:58:41;4.47;;;2.85;;
51828;SDS011;37881;48.024;8.774;2022-09-09T06:01:11;5.35;;;2.75;;
51828;SDS011;37881;48.024;8.774;2022-09-09T06:03:44;6.53;;;3.00;;
51828;SDS011;37881;48.024;8.774;2022-09-09T06:06:13;6.00;;;3.55;;
51828;SDS011;37881;48.024;8.774;2022-09-09T06:08:41;6.88;;;2.90;;
51828;SDS011;37881;48.024;8.774;2022-09-09T06:11:16;5.47;;;2.85;;
51828;SDS011;37881;48.024;8.774;2022-09-09T06:13:44;4.90;;;2.80;;
51828;SDS011;37881;48.024;8.774;2022-09-09T06:16:12;5.67;;;2.73;;
51828;SDS011;37881;48.024;8.774;2022-09-09T06:18:41;4.50;;;2.60;;
51828;SDS011;37881;48.024;8.774;2022-09-09T06:21:09;4.28;;;2.63;;
51828;SDS011;37881;48.024;8.774;2022-09-09T06:23:41;4.78;;;2.40;;
51828;SDS011;37881;48.024;8.774;2022-09-09T06:28:44;5.17;;;2.50;;
51828;SDS011;37881;48.024;8.774;2022-09-09T06:31:14;4.82;;;2.50;;
51828;SDS011;37881;48.024;8.774;2022-09-09T06:33:55;5.13;;;2.40;;
51828;SDS011;37881;48.024;8.774;2022-09-09T06:36:23;8.02;;;2.38;;
51828;SDS011;37881;48.024;8.774;2022-09-09T06:38:50;5.00;;;2.80;;
51828;SDS011;37881;48.024;8.774;2022-09-09T06:41:18;5.37;;;2.90;;
51828;SDS011;37881;48.024;8.774;2022-09-09T06:43:46;5.78;;;2.70;;
51828;SDS011;37881;48.024;8.774;2022-09-09T06:46:17;7.68;;;2.70;;
51828;SDS011;37881;48.024;8.774;2022-09-09T06:48:45;6.00;;;3.20;;
51828;SDS011;37881;48.024;8.774;2022-09-09T06:51:16;23.67;;;13.05;;
51828;SDS011;37881;48.024;8.774;2022-09-09T06:53:45;33.63;;;17.87;;
51828;SDS011;37881;48.024;8.774;2022-09-09T06:58:55;61.45;;;30.50;;
51828;SDS011;37881;48.024;8.774;2022-09-09T07:01:25;20.90;;;11.82;;
51828;SDS011;37881;48.024;8.774;2022-09-09T07:03:54;5.57;;;2.70;;
51828;SDS011;37881;48.024;8.774;2022-09-09T07:06:23;3.57;;;1.90;;
51828;SDS011;37881;48.024;8.774;2022-09-09T07:08:55;4.40;;;1.55;;
51828;SDS011;37881;48.024;8.774;2022-09-09T07:11:25;5.30;;;1.77;;
51828;SDS011;37881;48.024;8.774;2022-09-09T07:13:53;5.55;;;3.65;;
51828;SDS011;37881;48.024;8.774;2022-09-09T07:16:21;5.38;;;2.40;;
51828;SDS011;37881;48.024;8.774;2022-09-09T07:18:51;3.73;;;2.00;;
51828;SDS011;37881;48.024;8.774;2022-09-09T07:21:19;3.55;;;1.70;;
51828;SDS011;37881;48.024;8.774;2022-09-09T07:23:47;4.32;;;2.00;;
51828;SDS011;37881;48.024;8.774;2022-09-09T07:26:15;5.78;;;1.63;;
51828;SDS011;37881;48.024;8.774;2022-09-09T07:28:45;3.55;;;1.67;;
51828;SDS011;37881;48.024;8.774;2022-09-09T07:31:13;4.10;;;1.70;;
51828;SDS011;37881;48.024;8.774;2022-09-09T07:33:43;4.00;;;1.92;;
51828;SDS011;37881;48.024;8.774;2022-09-09T07:36:24;5.68;;;1.80;;
51828;SDS011;37881;48.024;8.774;2022-09-09T07:39:08;3.22;;;1.50;;
51828;SDS011;37881;48.024;8.774;2022-09-09T07:41:37;5.32;;;2.00;;
51828;SDS011;37881;48.024;8.774;2022-09-09T07:44:10;4.83;;;1.90;;
51828;SDS011;37881;48.024;8.774;2022-09-09T07:46:38;5.03;;;1.85;;
51828;SDS011;37881;48.024;8.774;2022-09-09T07:49:06;3.92;;;1.40;;
51828;SDS011;37881;48.024;8.774;2022-09-09T07:51:35;3.58;;;1.60;;
51828;SDS011;37881;48.024;8.774;2022-09-09T07:54:04;5.43;;;1.70;;
51828;SDS011;37881;48.024;8.774;2022-09-09T07:56:33;3.50;;;1.60;;
51828;SDS011;37881;48.024;8.774;2022-09-09T07:58:59;4.80;;;2.30;;
51828;SDS011;37881;48.024;8.774;2022-09-09T08:01:28;5.05;;;1.75;;
51828;SDS011;37881;48.024;8.774;2022-09-09T08:06:28;4.28;;;1.60;;
51828;SDS011;37881;48.024;8.774;2022-09-09T08:08:56;4.60;;;1.93;;
51828;SDS011;37881;48.024;8.774;2022-09-09T08:11:23;3.42;;;1.40;;
51828;SDS011;37881;48.024;8.774;2022-09-09T08:13:52;4.15;;;1.70;;
51828;SDS011;37881;48.024;8.774;2022-09-09T08:16:29;3.78;;;1.60;;
51828;SDS011;37881;48.024;8.774;2022-09-09T08:18:57;5.13;;;1.60;;
51828;SDS011;37881;48.024;8.774;2022-09-09T08:21:28;3.87;;;1.33;;
51828;SDS011;37881;48.024;8.774;2022-09-09T08:23:56;3.40;;;1.30;;
51828;SDS011;37881;48.024;8.774;2022-09-09T08:26:26;4.68;;;1.30;;
51828;SDS011;37881;48.024;8.774;2022-09-09T08:28:55;4.10;;;1.25;;
51828;SDS011;37881;48.024;8.774;2022-09-09T08:31:27;4.80;;;1.20;;
51828;SDS011;37881;48.024;8.774;2022-09-09T08:33:56;3.07;;;1.10;;
51828;SDS011;37881;48.024;8.774;2022-09-09T08:36:26;3.25;;;1.10;;
51828;SDS011;37881;48.024;8.774;2022-09-09T08:38:56;4.32;;;1.40;;
51828;SDS011;37881;48.024;8.774;2022-09-09T08:52:50;2.90;;;1.10;;
51828;SDS011;37881;48.024;8.774;2022-09-09T08:58:11;3.95;;;1.27;;
51828;SDS011;37881;48.024;8.774;2022-09-09T09:03:38;4.03;;;1.10;;
51828;SDS011;37881;48.024;8.774;2022-09-09T09:09:16;3.25;;;1.00;;
51828;SDS011;37881;48.024;8.774;2022-09-09T09:11:50;4.30;;;1.00;;
51828;SDS011;37881;48.024;8.774;2022-09-09T09:14:23;3.53;;;1.13;;
51828;SDS011;37881;48.024;8.774;2022-09-09T09:17:04;2.20;;;0.85;;
51828;SDS011;37881;48.024;8.774;2022-09-09T09:19:35;2.78;;;0.95;;
51828;SDS011;37881;48.024;8.774;2022-09-09T09:25:12;3.40;;;1.00;;
51828;SDS011;37881;48.024;8.774;2022-09-09T09:30:17;3.58;;;1.52;;
51828;SDS011;37881;48.024;8.774;2022-09-09T09:32:57;3.45;;;1.40;;
51828;SDS011;37881;48.024;8.774;2022-09-09T09:35:45;2.90;;;1.20;;
51828;SDS011;37881;48.024;8.774;2022-09-09T09:38:22;3.15;;;0.90;;
51828;SDS011;37881;48.024;8.774;2022-09-09T09:41:10;3.17;;;1.07;;
51828;SDS011;37881;48.024;8.774;2022-09-09T09:43:39;2.47;;;0.90;;
51828;SDS011;37881;48.024;8.774;2022-09-09T09:46:21;4.00;;;1.00;;
51828;SDS011;37881;48.024;8.774;2022-09-09T09:49:03;3.58;;;0.85;;
51828;SDS011;37881;48.024;8.774;2022-09-09T09:51:35;4.38;;;1.00;;
51828;SDS011;37881;48.024;8.774;2022-09-09T09:54:04;4.53;;;1.10;;
51828;SDS011;37881;48.024;8.774;2022-09-09T09:56:40;3.50;;;1.25;;
51828;SDS011;37881;48.024;8.774;2022-09-09T10:02:12;3.05;;;0.80;;
51828;SDS011;37881;48.024;8.774;2022-09-09T10:04:45;2.92;;;0.80;;
51828;SDS011;37881;48.024;8.774;2022-09-09T10:07:15;3.13;;;0.80;;
51828;SDS011;37881;48.024;8.774;2022-09-09T10:09:53;4.18;;;0.73;;
51828;SDS011;37881;48.024;8.774;2022-09-09T10:24:09;5.25;;;1.00;;
51828;SDS011;37881;48.024;8.774;2022-09-09T10:26:42;2.28;;;0.70;;
51828;SDS011;37881;48.024;8.774;2022-09-09T10:29:30;4.55;;;1.10;;
51828;SDS011;37881;48.024;8.774;2022-09-09T10:32:40;3.67;;;0.93;;
51828;SDS011;37881;48.024;8.774;2022-09-09T10:35:12;4.47;;;1.30;;
51828;SDS011;37881;48.024;8.774;2022-09-09T10:40:39;2.55;;;0.80;;
51828;SDS011;37881;48.024;8.774;2022-09-09T10:49:24;2.70;;;0.80;;
51828;SDS011;37881;48.024;8.774;2022-09-09T10:57:25;3.58;;;0.90;;
51828;SDS011;37881;48.024;8.774;2022-09-09T11:00:10;3.47;;;0.80;;
51828;SDS011;37881;48.024;8.774;2022-09-09T11:02:43;3.33;;;0.60;;
51828;SDS011;37881;48.024;8.774;2022-09-09T11:05:14;2.08;;;0.60;;
51828;SDS011;37881;48.024;8.774;2022-09-09T11:07:53;2.47;;;0.70;;
51828;SDS011;37881;48.024;8.774;2022-09-09T11:13:03;2.83;;;0.70;;
51828;SDS011;37881;48.024;8.774;2022-09-09T11:15:43;3.40;;;0.80;;
51828;SDS011;37881;48.024;8.774;2022-09-09T11:18:18;5.32;;;1.10;;
51828;SDS011;37881;48.024;8.774;2022-09-09T11:20:48;2.75;;;0.70;;
51828;SDS011;37881;48.024;8.774;2022-09-09T11:23:21;4.22;;;0.90;;
51828;SDS011;37881;48.024;8.774;2022-09-09T11:26:14;3.53;;;0.80;;
51828;SDS011;37881;48.024;8.774;2022-09-09T11:31:50;2.65;;;0.90;;
51828;SDS011;37881;48.024;8.774;2022-09-09T11:35:12;2.92;;;0.80;;
51828;SDS011;37881;48.024;8.774;2022-09-09T11:38:02;2.40;;;0.90;;
51828;SDS011;37881;48.024;8.774;2022-09-09T11:40:30;3.67;;;0.73;;
51828;SDS011;37881;48.024;8.774;2022-09-09T11:43:05;3.70;;;0.70;;
51828;SDS011;37881;48.024;8.774;2022-09-09T11:45:34;3.15;;;0.88;;
51828;SDS011;37881;48.024;8.774;2022-09-09T11:48:03;2.00;;;0.68;;
51828;SDS011;37881;48.024;8.774;2022-09-09T11:50:33;2.95;;;1.00;;
51828;SDS011;37881;48.024;8.774;2022-09-09T11:53:16;2.80;;;0.83;;
51828;SDS011;37881;48.024;8.774;2022-09-09T11:55:47;2.65;;;0.75;;
51828;SDS011;37881;48.024;8.774;2022-09-09T11:58:15;2.50;;;0.82;;
51828;SDS011;37881;48.024;8.774;2022-09-09T12:00:45;4.53;;;1.33;;
51828;SDS011;37881;48.024;8.774;2022-09-09T12:06:19;3.33;;;0.73;;
51828;SDS011;37881;48.024;8.774;2022-09-09T12:08:57;3.05;;;0.98;;
51828;SDS011;37881;48.024;8.774;2022-09-09T12:11:32;3.55;;;1.25;;
51828;SDS011;37881;48.024;8.774;2022-09-09T12:13:59;6.68;;;2.00;;
51828;SDS011;37881;48.024;8.774;2022-09-09T12:16:30;4.63;;;1.38;;
51828;SDS011;37881;48.024;8.774;2022-09-09T12:19:21;7.30;;;1.80;;
51828;SDS011;37881;48.024;8.774;2022-09-09T12:22:01;4.38;;;1.00;;
51828;SDS011;37881;48.024;8.774;2022-09-09T12:24:35;6.35;;;1.73;;
51828;SDS011;37881;48.024;8.774;2022-09-09T12:27:10;2.85;;;0.70;;
51828;SDS011;37881;48.024;8.774;2022-09-09T12:29:47;4.05;;;0.60;;
51828;SDS011;37881;48.024;8.774;2022-09-09T12:32:24;3.13;;;0.90;;
51828;SDS011;37881;48.024;8.774;2022-09-09T12:37:34;2.15;;;0.60;;
51828;SDS011;37881;48.024;8.774;2022-09-09T12:40:17;6.20;;;0.80;;
51828;SDS011;37881;48.024;8.774;2022-09-09T12:42:46;1.98;;;0.70;;
51828;SDS011;37881;48.024;8.774;2022-09-09T12:47:48;2.85;;;0.80;;
51828;SDS011;37881;48.024;8.774;2022-09-09T12:50:18;2.90;;;0.70;;
51828;SDS011;37881;48.024;8.774;2022-09-09T12:52:48;4.45;;;0.70;;
51828;SDS011;37881;48.024;8.774;2022-09-09T12:55:18;2.35;;;0.60;;
51828;SDS011;37881;48.024;8.774;2022-09-09T12:57:47;2.40;;;0.80;;
51828;SDS011;37881;48.024;8.774;2022-09-09T13:00:20;2.17;;;0.50;;
51828;SDS011;37881;48.024;8.774;2022-09-09T13:02:50;3.00;;;0.65;;
51828;SDS011;37881;48.024;8.774;2022-09-09T13:05:31;1.80;;;0.50;;
51828;SDS011;37881;48.024;8.774;2022-09-09T13:08:02;2.72;;;0.70;;
51828;SDS011;37881;48.024;8.774;2022-09-09T13:10:35;2.97;;;0.50;;
51828;SDS011;37881;48.024;8.774;2022-09-09T13:13:49;4.13;;;0.80;;
51828;SDS011;37881;48.024;8.774;2022-09-09T13:16:28;2.42;;;0.60;;
51828;SDS011;37881;48.024;8.774;2022-09-09T13:19:22;2.97;;;0.70;;
51828;SDS011;37881;48.024;8.774;2022-09-09T13:21:51;2.75;;;0.80;;
51828;SDS011;37881;48.024;8.774;2022-09-09T13:24:33;3.00;;;0.70;;
51828;SDS011;37881;48.024;8.774;2022-09-09T13:27:02;2.60;;;0.80;;
51828;SDS011;37881;48.024;8.774;2022-09-09T13:29:31;2.70;;;0.70;;
51828;SDS011;37881;48.024;8.774;2022-09-09T13:32:05;6.07;;;0.80;;
51828;SDS011;37881;48.024;8.774;2022-09-09T13:34:38;3.00;;;0.73;;
51828;SDS011;37881;48.024;8.774;2022-09-09T13:37:06;4.10;;;0.90;;
51828;SDS011;37881;48.024;8.774;2022-09-09T13:39:51;2.60;;;0.70;;
51828;SDS011;37881;48.024;8.774;2022-09-09T13:42:26;2.97;;;1.00;;
51828;SDS011;37881;48.024;8.774;2022-09-09T13:44:55;3.38;;;0.60;;
51828;SDS011;37881;48.024;8.774;2022-09-09T13:47:33;2.83;;;0.60;;
51828;SDS011;37881;48.024;8.774;2022-09-09T13:52:53;2.75;;;0.82;;
51828;SDS011;37881;48.024;8.774;2022-09-09T13:55:21;2.03;;;0.68;;
51828;SDS011;37881;48.024;8.774;2022-09-09T13:57:59;3.20;;;0.80;;
51828;SDS011;37881;48.024;8.774;2022-09-09T14:00:29;3.03;;;0.90;;
51828;SDS011;37881;48.024;8.774;2022-09-09T14:02:57;2.53;;;0.50;;
51828;SDS011;37881;48.024;8.774;2022-09-09T14:05:28;3.47;;;0.73;;
51828;SDS011;37881;48.024;8.774;2022-09-09T14:07:59;3.15;;;0.80;;
51828;SDS011;37881;48.024;8.774;2022-09-09T14:10:29;3.28;;;0.80;;
51828;SDS011;37881;48.024;8.774;2022-09-09T14:12:56;3.55;;;0.73;;
51828;SDS011;37881;48.024;8.774;2022-09-09T14:15:22;2.33;;;0.60;;
51828;SDS011;37881;48.024;8.774;2022-09-09T14:17:49;3.65;;;0.60;;
51828;SDS011;37881;48.024;8.774;2022-09-09T14:20:16;4.43;;;0.70;;
51828;SDS011;37881;48.024;8.774;2022-09-09T14:22:44;2.75;;;0.52;;
51828;SDS011;37881;48.024;8.774;2022-09-09T14:25:11;3.00;;;0.80;;
51828;SDS011;37881;48.024;8.774;2022-09-09T14:27:39;2.60;;;0.60;;
51828;SDS011;37881;48.024;8.774;2022-09-09T14:30:06;2.58;;;0.80;;
51828;SDS011;37881;48.024;8.774;2022-09-09T14:32:34;2.55;;;0.90;;
51828;SDS011;37881;48.024;8.774;2022-09-09T14:35:01;3.40;;;0.70;;
51828;SDS011;37881;48.024;8.774;2022-09-09T14:37:27;2.80;;;0.80;;
51828;SDS011;37881;48.024;8.774;2022-09-09T14:39:54;3.97;;;0.70;;
51828;SDS011;37881;48.024;8.774;2022-09-09T14:42:21;2.88;;;0.65;;
51828;SDS011;37881;48.024;8.774;2022-09-09T14:44:48;2.25;;;0.70;;
51828;SDS011;37881;48.024;8.774;2022-09-09T14:47:15;3.67;;;0.80;;
51828;SDS011;37881;48.024;8.774;2022-09-09T14:49:41;3.08;;;0.70;;
51828;SDS011;37881;48.024;8.774;2022-09-09T14:52:12;3.47;;;0.70;;
51828;SDS011;37881;48.024;8.774;2022-09-09T14:54:39;4.05;;;0.60;;
51828;SDS011;37881;48.024;8.774;2022-09-09T14:57:06;2.15;;;0.60;;
51828;SDS011;37881;48.024;8.774;2022-09-09T14:59:33;3.05;;;0.40;;
51828;SDS011;37881;48.024;8.774;2022-09-09T15:02:00;1.95;;;0.50;;
51828;SDS011;37881;48.024;8.774;2022-09-09T15:04:30;3.00;;;0.50;;
51828;SDS011;37881;48.024;8.774;2022-09-09T15:06:57;2.15;;;0.40;;
51828;SDS011;37881;48.024;8.774;2022-09-09T15:09:24;1.95;;;0.50;;
51828;SDS011;37881;48.024;8.774;2022-09-09T15:11:51;2.78;;;0.50;;
51828;SDS011;37881;48.024;8.774;2022-09-09T15:14:17;2.78;;;0.50;;
51828;SDS011;37881;48.024;8.774;2022-09-09T15:16:49;3.53;;;0.47;;
51828;SDS011;37881;48.024;8.774;2022-09-09T15:19:16;1.92;;;0.47;;
51828;SDS011;37881;48.024;8.774;2022-09-09T15:21:50;2.30;;;0.68;;
51828;SDS011;37881;48.024;8.774;2022-09-09T15:24:16;3.72;;;0.50;;
51828;SDS011;37881;48.024;8.774;2022-09-09T15:26:43;1.80;;;0.50;;
51828;SDS011;37881;48.024;8.774;2022-09-09T15:29:10;2.33;;;0.50;;
51828;SDS011;37881;48.024;8.774;2022-09-09T15:31:36;3.05;;;0.57;;
51828;SDS011;37881;48.024;8.774;2022-09-09T15:34:04;2.00;;;0.52;;
51828;SDS011;37881;48.024;8.774;2022-09-09T15:37:06;2.08;;;0.50;;
51828;SDS011;37881;48.024;8.774;2022-09-09T15:39:26;1.92;;;0.50;;
51828;SDS011;37881;48.024;8.774;2022-09-09T15:41:53;1.70;;;0.40;;
51828;SDS011;37881;48.024;8.774;2022-09-09T15:44:20;3.17;;;0.60;;
51828;SDS011;37881;48.024;8.774;2022-09-09T15:46:50;1.92;;;0.43;;
51828;SDS011;37881;48.024;8.774;2022-09-09T15:49:20;2.00;;;0.80;;
51828;SDS011;37881;48.024;8.774;2022-09-09T15:51:55;2.80;;;1.00;;
51828;SDS011;37881;48.024;8.774;2022-09-09T15:54:24;2.10;;;0.50;;
51828;SDS011;37881;48.024;8.774;2022-09-09T15:56:53;3.20;;;0.55;;
51828;SDS011;37881;48.024;8.774;2022-09-09T15:59:26;2.42;;;0.60;;
51828;SDS011;37881;48.024;8.774;2022-09-09T16:01:54;2.95;;;0.65;;
51828;SDS011;37881;48.024;8.774;2022-09-09T16:04:22;2.42;;;0.60;;
51828;SDS011;37881;48.024;8.774;2022-09-09T16:06:50;2.67;;;0.60;;
51828;SDS011;37881;48.024;8.774;2022-09-09T16:09:19;2.78;;;0.50;;
51828;SDS011;37881;48.024;8.774;2022-09-09T16:11:46;2.25;;;0.55;;
51828;SDS011;37881;48.024;8.774;2022-09-09T16:14:14;3.58;;;0.60;;
51828;SDS011;37881;48.024;8.774;2022-09-09T16:16:42;1.75;;;0.50;;
51828;SDS011;37881;48.024;8.774;2022-09-09T16:19:10;2.07;;;0.50;;
51828;SDS011;37881;48.024;8.774;2022-09-09T16:21:42;3.35;;;0.82;;
51828;SDS011;37881;48.024;8.774;2022-09-09T16:24:12;2.65;;;0.60;;
51828;SDS011;37881;48.024;8.774;2022-09-09T16:26:42;3.22;;;0.70;;
51828;SDS011;37881;48.024;8.774;2022-09-09T16:29:12;2.47;;;0.73;;
51828;SDS011;37881;48.024;8.774;2022-09-09T16:31:40;2.27;;;0.60;;
51828;SDS011;37881;48.024;8.774;2022-09-09T16:34:08;2.47;;;0.60;;
51828;SDS011;37881;48.024;8.774;2022-09-09T16:36:36;5.53;;;0.70;;
51828;SDS011;37881;48.024;8.774;2022-09-09T16:39:06;2.33;;;0.60;;
51828;SDS011;37881;48.024;8.774;2022-09-09T16:41:40;3.47;;;0.70;;
51828;SDS011;37881;48.024;8.774;2022-09-09T16:44:08;3.03;;;0.80;;
51828;SDS011;37881;48.024;8.774;2022-09-09T16:46:38;2.70;;;0.90;;
51828;SDS011;37881;48.024;8.774;2022-09-09T16:49:07;3.28;;;0.80;;
51828;SDS011;37881;48.024;8.774;2022-09-09T16:51:36;2.22;;;0.60;;
51828;SDS011;37881;48.024;8.774;2022-09-09T16:54:05;1.92;;;0.70;;
51828;SDS011;37881;48.024;8.774;2022-09-09T16:56:34;2.93;;;0.70;;
51828;SDS011;37881;48.024;8.774;2022-09-09T16:59:09;3.17;;;0.80;;
51828;SDS011;37881;48.024;8.774;2022-09-09T17:01:41;5.40;;;0.80;;
51828;SDS011;37881;48.024;8.774;2022-09-09T17:04:10;3.92;;;0.80;;
51828;SDS011;37881;48.024;8.774;2022-09-09T17:06:47;5.00;;;0.90;;
51828;SDS011;37881;48.024;8.774;2022-09-09T17:09:18;4.60;;;1.00;;
51828;SDS011;37881;48.024;8.774;2022-09-09T17:11:46;4.28;;;0.90;;
51828;SDS011;37881;48.024;8.774;2022-09-09T17:14:15;3.35;;;0.93;;